sensor_id;sensor_type;location;lat;lon;timestamp;P1;durP1;ratioP1;P2;durP2;ratioP2
16813;SDS011;8524;57.650;11.926;2022-08-18T06:59:18;21.93;;;19.70;;
16813;SDS011;8524;57.650;11.926;2022-08-18T07:01:50;23.23;;;20.77;;
16813;SDS011;8524;57.650;11.926;2022-08-18T07:04:29;30.60;;;25.97;;
16813;SDS011;8524;57.650;11.926;2022-08-18T07:06:58;25.70;;;21.73;;
16813;SDS011;8524;57.650;11.926;2022-08-18T07:09:44;20.70;;;18.60;;
16813;SDS011;8524;57.650;11.926;2022-08-18T07:12:17;22.13;;;19.60;;
16813;SDS011;8524;57.650;11.926;2022-08-18T07:14:49;20.00;;;17.90;;
16813;SDS011;8524;57.650;11.926;2022-08-18T07:17:19;26.07;;;22.73;;
16813;SDS011;8524;57.650;11.926;2022-08-18T07:19:59;27.30;;;23.83;;
16813;SDS011;8524;57.650;11.926;2022-08-18T07:22:29;24.97;;;22.27;;
16813;SDS011;8524;57.650;11.926;2022-08-18T07:24:57;25.90;;;23.20;;
16813;SDS011;8524;57.650;11.926;2022-08-18T07:27:43;27.60;;;24.53;;
16813;SDS011;8524;57.650;11.926;2022-08-18T07:30:25;26.37;;;23.77;;
16813;SDS011;8524;57.650;11.926;2022-08-18T07:32:59;24.60;;;22.17;;
16813;SDS011;8524;57.650;11.926;2022-08-18T07:35:33;24.93;;;22.43;;
16813;SDS011;8524;57.650;11.926;2022-08-18T07:38:05;27.07;;;24.43;;
16813;SDS011;8524;57.650;11.926;2022-08-18T07:40:44;24.30;;;21.97;;
16813;SDS011;8524;57.650;11.926;2022-08-18T07:43:16;25.40;;;22.73;;
16813;SDS011;8524;57.650;11.926;2022-08-18T07:45:49;28.90;;;26.10;;
16813;SDS011;8524;57.650;11.926;2022-08-18T07:48:22;25.57;;;22.93;;
16813;SDS011;8524;57.650;11.926;2022-08-18T07:50:56;24.80;;;22.40;;
16813;SDS011;8524;57.650;11.926;2022-08-18T07:53:42;25.20;;;22.70;;
16813;SDS011;8524;57.650;11.926;2022-08-18T07:56:19;24.77;;;22.53;;
16813;SDS011;8524;57.650;11.926;2022-08-18T07:58:57;24.97;;;22.67;;
16813;SDS011;8524;57.650;11.926;2022-08-18T08:01:32;25.50;;;23.10;;
16813;SDS011;8524;57.650;11.926;2022-08-18T08:04:07;23.30;;;21.10;;
16813;SDS011;8524;57.650;11.926;2022-08-18T08:06:40;20.87;;;18.73;;
16813;SDS011;8524;57.650;11.926;2022-08-18T08:09:16;20.17;;;18.27;;
16813;SDS011;8524;57.650;11.926;2022-08-18T08:11:50;21.63;;;19.53;;
16813;SDS011;8524;57.650;11.926;2022-08-18T08:14:28;22.00;;;19.90;;
16813;SDS011;8524;57.650;11.926;2022-08-18T08:17:05;21.43;;;19.40;;
16813;SDS011;8524;57.650;11.926;2022-08-18T08:19:53;18.20;;;16.57;;
16813;SDS011;8524;57.650;11.926;2022-08-18T08:22:38;19.37;;;17.57;;
16813;SDS011;8524;57.650;11.926;2022-08-18T08:25:23;17.87;;;16.27;;
16813;SDS011;8524;57.650;11.926;2022-08-18T08:27:56;19.70;;;17.87;;
16813;SDS011;8524;57.650;11.926;2022-08-18T08:30:34;19.13;;;17.33;;
16813;SDS011;8524;57.650;11.926;2022-08-18T08:33:11;21.20;;;19.27;;
16813;SDS011;8524;57.650;11.926;2022-08-18T08:35:46;19.03;;;17.13;;
16813;SDS011;8524;57.650;11.926;2022-08-18T08:38:20;17.57;;;15.87;;
16813;SDS011;8524;57.650;11.926;2022-08-18T08:40:52;19.10;;;17.33;;
16813;SDS011;8524;57.650;11.926;2022-08-18T08:43:24;19.57;;;17.77;;
16813;SDS011;8524;57.650;11.926;2022-08-18T08:45:58;17.93;;;16.13;;
16813;SDS011;8524;57.650;11.926;2022-08-18T08:48:33;14.73;;;13.53;;
16813;SDS011;8524;57.650;11.926;2022-08-18T08:51:05;15.67;;;14.27;;
16813;SDS011;8524;57.650;11.926;2022-08-18T08:53:53;15.70;;;14.30;;
16813;SDS011;8524;57.650;11.926;2022-08-18T08:56:28;15.00;;;13.77;;
16813;SDS011;8524;57.650;11.926;2022-08-18T08:59:00;17.07;;;15.23;;
16813;SDS011;8524;57.650;11.926;2022-08-18T09:01:33;14.87;;;13.47;;
16813;SDS011;8524;57.650;11.926;2022-08-18T09:04:12;13.67;;;12.43;;
16813;SDS011;8524;57.650;11.926;2022-08-18T09:06:47;13.00;;;11.80;;
16813;SDS011;8524;57.650;11.926;2022-08-18T09:09:32;12.50;;;11.40;;
16813;SDS011;8524;57.650;11.926;2022-08-18T09:15:16;11.93;;;10.93;;
16813;SDS011;8524;57.650;11.926;2022-08-18T09:21:30;11.60;;;10.57;;
16813;SDS011;8524;57.650;11.926;2022-08-18T09:24:07;11.30;;;10.40;;
16813;SDS011;8524;57.650;11.926;2022-08-18T09:26:46;12.73;;;11.70;;
16813;SDS011;8524;57.650;11.926;2022-08-18T09:29:19;12.07;;;11.07;;
16813;SDS011;8524;57.650;11.926;2022-08-18T09:35:04;10.17;;;9.17;;
16813;SDS011;8524;57.650;11.926;2022-08-18T09:37:41;10.67;;;9.70;;
16813;SDS011;8524;57.650;11.926;2022-08-18T09:40:32;9.27;;;8.57;;
16813;SDS011;8524;57.650;11.926;2022-08-18T09:43:22;8.90;;;8.20;;
16813;SDS011;8524;57.650;11.926;2022-08-18T09:45:59;8.97;;;8.13;;
16813;SDS011;8524;57.650;11.926;2022-08-18T09:48:30;7.70;;;7.10;;
16813;SDS011;8524;57.650;11.926;2022-08-18T09:53:53;8.77;;;8.07;;
16813;SDS011;8524;57.650;11.926;2022-08-18T09:56:55;7.73;;;7.13;;
16813;SDS011;8524;57.650;11.926;2022-08-18T10:05:36;6.95;;;6.38;;
16813;SDS011;8524;57.650;11.926;2022-08-18T10:11:35;6.20;;;5.70;;
16813;SDS011;8524;57.650;11.926;2022-08-18T10:14:17;6.25;;;5.85;;
16813;SDS011;8524;57.650;11.926;2022-08-18T10:16:56;6.78;;;6.18;;
16813;SDS011;8524;57.650;11.926;2022-08-18T10:19:27;6.70;;;6.10;;
16813;SDS011;8524;57.650;11.926;2022-08-18T10:22:05;6.68;;;6.18;;
16813;SDS011;8524;57.650;11.926;2022-08-18T10:24:35;6.72;;;6.10;;
16813;SDS011;8524;57.650;11.926;2022-08-18T10:27:07;6.28;;;5.63;;
16813;SDS011;8524;57.650;11.926;2022-08-18T10:29:48;6.45;;;5.95;;
16813;SDS011;8524;57.650;11.926;2022-08-18T10:41:08;5.97;;;5.47;;
16813;SDS011;8524;57.650;11.926;2022-08-18T10:43:45;6.05;;;5.63;;
16813;SDS011;8524;57.650;11.926;2022-08-18T10:46:16;5.97;;;5.57;;
16813;SDS011;8524;57.650;11.926;2022-08-18T10:48:56;5.80;;;5.40;;
16813;SDS011;8524;57.650;11.926;2022-08-18T10:51:28;5.93;;;5.50;;
16813;SDS011;8524;57.650;11.926;2022-08-18T10:54:14;6.30;;;5.85;;
16813;SDS011;8524;57.650;11.926;2022-08-18T10:56:51;6.03;;;5.57;;
16813;SDS011;8524;57.650;11.926;2022-08-18T10:59:25;6.93;;;6.22;;
16813;SDS011;8524;57.650;11.926;2022-08-18T11:02:06;5.35;;;4.95;;
16813;SDS011;8524;57.650;11.926;2022-08-18T11:04:44;6.38;;;5.88;;
16813;SDS011;8524;57.650;11.926;2022-08-18T11:07:17;6.82;;;6.30;;
16813;SDS011;8524;57.650;11.926;2022-08-18T11:09:47;6.00;;;5.60;;
16813;SDS011;8524;57.650;11.926;2022-08-18T11:12:34;6.40;;;5.90;;
16813;SDS011;8524;57.650;11.926;2022-08-18T11:15:14;5.95;;;5.55;;
16813;SDS011;8524;57.650;11.926;2022-08-18T11:17:49;5.60;;;5.10;;
16813;SDS011;8524;57.650;11.926;2022-08-18T11:20:28;5.47;;;5.07;;
16813;SDS011;8524;57.650;11.926;2022-08-18T11:22:57;5.30;;;4.57;;
16813;SDS011;8524;57.650;11.926;2022-08-18T11:25:27;6.45;;;6.05;;
16813;SDS011;8524;57.650;11.926;2022-08-18T11:27:56;6.05;;;5.65;;
16813;SDS011;8524;57.650;11.926;2022-08-18T11:30:28;6.15;;;5.75;;
16813;SDS011;8524;57.650;11.926;2022-08-18T11:32:59;5.72;;;5.32;;
16813;SDS011;8524;57.650;11.926;2022-08-18T11:35:28;5.95;;;5.55;;
16813;SDS011;8524;57.650;11.926;2022-08-18T11:37:57;5.60;;;5.20;;
16813;SDS011;8524;57.650;11.926;2022-08-18T11:40:36;6.03;;;5.53;;
16813;SDS011;8524;57.650;11.926;2022-08-18T11:43:10;5.63;;;5.22;;
16813;SDS011;8524;57.650;11.926;2022-08-18T11:45:50;5.00;;;4.70;;
16813;SDS011;8524;57.650;11.926;2022-08-18T11:48:21;5.63;;;5.22;;
16813;SDS011;8524;57.650;11.926;2022-08-18T11:51:00;6.20;;;5.70;;
16813;SDS011;8524;57.650;11.926;2022-08-18T11:53:37;6.10;;;5.68;;
16813;SDS011;8524;57.650;11.926;2022-08-18T11:56:13;5.95;;;5.53;;
16813;SDS011;8524;57.650;11.926;2022-08-18T11:58:51;5.50;;;5.10;;
16813;SDS011;8524;57.650;11.926;2022-08-18T12:01:32;6.45;;;5.85;;
16813;SDS011;8524;57.650;11.926;2022-08-18T12:04:13;5.70;;;5.30;;
16813;SDS011;8524;57.650;11.926;2022-08-18T12:06:53;5.72;;;5.20;;
16813;SDS011;8524;57.650;11.926;2022-08-18T12:09:29;6.60;;;6.05;;
16813;SDS011;8524;57.650;11.926;2022-08-18T12:11:59;6.15;;;5.35;;
16813;SDS011;8524;57.650;11.926;2022-08-18T12:14:30;6.05;;;5.55;;
16813;SDS011;8524;57.650;11.926;2022-08-18T12:17:00;5.47;;;5.13;;
16813;SDS011;8524;57.650;11.926;2022-08-18T12:19:27;5.65;;;5.15;;
16813;SDS011;8524;57.650;11.926;2022-08-18T12:21:56;6.40;;;5.95;;
16813;SDS011;8524;57.650;11.926;2022-08-18T12:24:25;5.80;;;5.38;;
16813;SDS011;8524;57.650;11.926;2022-08-18T12:26:53;6.68;;;5.97;;
16813;SDS011;8524;57.650;11.926;2022-08-18T12:29:21;6.75;;;6.13;;
16813;SDS011;8524;57.650;11.926;2022-08-18T12:31:49;5.25;;;4.90;;
16813;SDS011;8524;57.650;11.926;2022-08-18T12:34:19;6.57;;;5.97;;
16813;SDS011;8524;57.650;11.926;2022-08-18T12:36:48;6.20;;;5.80;;
16813;SDS011;8524;57.650;11.926;2022-08-18T12:39:16;6.00;;;5.60;;
16813;SDS011;8524;57.650;11.926;2022-08-18T12:41:44;6.28;;;5.88;;
16813;SDS011;8524;57.650;11.926;2022-08-18T12:44:10;6.47;;;5.97;;
16813;SDS011;8524;57.650;11.926;2022-08-18T12:46:37;5.90;;;5.50;;
16813;SDS011;8524;57.650;11.926;2022-08-18T12:49:05;6.53;;;6.03;;
16813;SDS011;8524;57.650;11.926;2022-08-18T12:51:41;6.28;;;5.68;;
16813;SDS011;8524;57.650;11.926;2022-08-18T12:54:08;6.30;;;5.35;;
16813;SDS011;8524;57.650;11.926;2022-08-18T12:56:35;6.50;;;6.00;;
16813;SDS011;8524;57.650;11.926;2022-08-18T12:59:04;6.65;;;5.97;;
16813;SDS011;8524;57.650;11.926;2022-08-18T13:01:32;6.20;;;5.80;;
16813;SDS011;8524;57.650;11.926;2022-08-18T13:04:00;6.10;;;5.53;;
16813;SDS011;8524;57.650;11.926;2022-08-18T13:06:28;6.13;;;5.72;;
16813;SDS011;8524;57.650;11.926;2022-08-18T13:08:57;6.00;;;5.63;;
16813;SDS011;8524;57.650;11.926;2022-08-18T13:11:24;6.20;;;5.80;;
16813;SDS011;8524;57.650;11.926;2022-08-18T13:13:52;5.55;;;5.15;;
16813;SDS011;8524;57.650;11.926;2022-08-18T13:16:20;5.75;;;5.35;;
16813;SDS011;8524;57.650;11.926;2022-08-18T13:18:48;5.63;;;5.22;;
16813;SDS011;8524;57.650;11.926;2022-08-18T13:21:15;5.82;;;5.45;;
16813;SDS011;8524;57.650;11.926;2022-08-18T13:23:43;6.68;;;6.10;;
16813;SDS011;8524;57.650;11.926;2022-08-18T13:26:12;5.35;;;5.00;;
16813;SDS011;8524;57.650;11.926;2022-08-18T13:28:43;6.15;;;5.75;;
16813;SDS011;8524;57.650;11.926;2022-08-18T13:31:10;5.95;;;5.47;;
16813;SDS011;8524;57.650;11.926;2022-08-18T13:33:37;5.85;;;5.40;;
16813;SDS011;8524;57.650;11.926;2022-08-18T13:36:05;6.50;;;5.97;;
16813;SDS011;8524;57.650;11.926;2022-08-18T13:38:33;5.45;;;5.03;;
16813;SDS011;8524;57.650;11.926;2022-08-18T13:41:01;6.05;;;5.55;;
16813;SDS011;8524;57.650;11.926;2022-08-18T13:43:32;6.07;;;5.68;;
16813;SDS011;8524;57.650;11.926;2022-08-18T13:46:02;5.50;;;5.00;;
16813;SDS011;8524;57.650;11.926;2022-08-18T13:48:29;6.47;;;5.97;;
16813;SDS011;8524;57.650;11.926;2022-08-18T13:50:57;6.53;;;6.03;;
16813;SDS011;8524;57.650;11.926;2022-08-18T13:53:25;6.72;;;6.22;;
16813;SDS011;8524;57.650;11.926;2022-08-18T13:55:54;7.95;;;7.32;;
16813;SDS011;8524;57.650;11.926;2022-08-18T13:58:23;8.90;;;8.10;;
16813;SDS011;8524;57.650;11.926;2022-08-18T14:00:54;7.38;;;6.82;;
16813;SDS011;8524;57.650;11.926;2022-08-18T14:03:23;8.07;;;7.47;;
16813;SDS011;8524;57.650;11.926;2022-08-18T14:05:50;6.93;;;6.40;;
16813;SDS011;8524;57.650;11.926;2022-08-18T14:08:22;7.65;;;7.15;;
16813;SDS011;8524;57.650;11.926;2022-08-18T14:10:49;6.95;;;6.45;;
16813;SDS011;8524;57.650;11.926;2022-08-18T14:13:19;8.07;;;7.47;;
16813;SDS011;8524;57.650;11.926;2022-08-18T14:15:47;8.50;;;7.90;;
16813;SDS011;8524;57.650;11.926;2022-08-18T14:18:17;8.73;;;8.02;;
16813;SDS011;8524;57.650;11.926;2022-08-18T14:20:44;7.55;;;7.05;;
16813;SDS011;8524;57.650;11.926;2022-08-18T14:23:28;8.00;;;7.28;;
16813;SDS011;8524;57.650;11.926;2022-08-18T14:26:18;7.63;;;7.13;;
16813;SDS011;8524;57.650;11.926;2022-08-18T14:29:03;8.02;;;7.45;;
16813;SDS011;8524;57.650;11.926;2022-08-18T14:31:30;8.43;;;7.75;;
16813;SDS011;8524;57.650;11.926;2022-08-18T14:33:59;8.00;;;7.40;;
16813;SDS011;8524;57.650;11.926;2022-08-18T14:36:28;8.73;;;8.02;;
16813;SDS011;8524;57.650;11.926;2022-08-18T14:38:55;8.65;;;7.95;;
16813;SDS011;8524;57.650;11.926;2022-08-18T14:41:22;8.63;;;8.02;;
16813;SDS011;8524;57.650;11.926;2022-08-18T14:43:49;8.43;;;7.72;;
16813;SDS011;8524;57.650;11.926;2022-08-18T14:46:17;7.43;;;6.88;;
16813;SDS011;8524;57.650;11.926;2022-08-18T14:48:44;8.27;;;7.68;;
16813;SDS011;8524;57.650;11.926;2022-08-18T14:51:13;8.32;;;7.72;;
16813;SDS011;8524;57.650;11.926;2022-08-18T14:53:40;7.85;;;7.25;;
16813;SDS011;8524;57.650;11.926;2022-08-18T14:56:07;6.85;;;6.35;;
16813;SDS011;8524;57.650;11.926;2022-08-18T14:58:36;7.07;;;6.47;;
16813;SDS011;8524;57.650;11.926;2022-08-18T15:01:05;7.43;;;6.85;;
16813;SDS011;8524;57.650;11.926;2022-08-18T15:03:34;9.25;;;8.50;;
16813;SDS011;8524;57.650;11.926;2022-08-18T15:06:01;8.27;;;7.68;;
16813;SDS011;8524;57.650;11.926;2022-08-18T15:08:32;8.35;;;7.65;;
16813;SDS011;8524;57.650;11.926;2022-08-18T15:10:59;7.60;;;7.00;;
16813;SDS011;8524;57.650;11.926;2022-08-18T15:13:27;6.95;;;6.38;;
16813;SDS011;8524;57.650;11.926;2022-08-18T15:15:54;7.63;;;7.10;;
16813;SDS011;8524;57.650;11.926;2022-08-18T15:18:21;7.60;;;7.00;;
16813;SDS011;8524;57.650;11.926;2022-08-18T15:20:49;8.07;;;7.35;;
16813;SDS011;8524;57.650;11.926;2022-08-18T15:23:35;7.90;;;7.30;;
16813;SDS011;8524;57.650;11.926;2022-08-18T15:26:19;7.80;;;7.20;;
16813;SDS011;8524;57.650;11.926;2022-08-18T15:28:50;7.65;;;6.97;;
16813;SDS011;8524;57.650;11.926;2022-08-18T15:31:17;6.20;;;5.80;;
16813;SDS011;8524;57.650;11.926;2022-08-18T15:33:44;6.88;;;6.28;;
16813;SDS011;8524;57.650;11.926;2022-08-18T15:36:11;6.18;;;5.68;;
16813;SDS011;8524;57.650;11.926;2022-08-18T15:38:42;7.47;;;6.88;;
16813;SDS011;8524;57.650;11.926;2022-08-18T15:41:09;6.70;;;6.20;;
16813;SDS011;8524;57.650;11.926;2022-08-18T15:43:51;6.57;;;6.03;;
16813;SDS011;8524;57.650;11.926;2022-08-18T15:46:19;6.70;;;6.10;;
16813;SDS011;8524;57.650;11.926;2022-08-18T15:48:46;7.10;;;6.60;;
16813;SDS011;8524;57.650;11.926;2022-08-18T15:51:13;7.35;;;6.78;;
16813;SDS011;8524;57.650;11.926;2022-08-18T15:53:41;7.45;;;6.85;;
16813;SDS011;8524;57.650;11.926;2022-08-18T15:56:11;8.10;;;7.50;;
16813;SDS011;8524;57.650;11.926;2022-08-18T15:58:39;7.53;;;7.03;;
16813;SDS011;8524;57.650;11.926;2022-08-18T16:01:07;6.38;;;5.90;;
16813;SDS011;8524;57.650;11.926;2022-08-18T16:03:35;7.10;;;6.60;;
16813;SDS011;8524;57.650;11.926;2022-08-18T16:06:02;6.60;;;6.10;;
16813;SDS011;8524;57.650;11.926;2022-08-18T16:08:30;8.15;;;7.45;;
16813;SDS011;8524;57.650;11.926;2022-08-18T16:11:04;6.88;;;6.38;;
16813;SDS011;8524;57.650;11.926;2022-08-18T16:13:32;7.30;;;6.80;;
16813;SDS011;8524;57.650;11.926;2022-08-18T16:16:02;6.63;;;6.15;;
16813;SDS011;8524;57.650;11.926;2022-08-18T16:18:34;6.95;;;6.45;;
16813;SDS011;8524;57.650;11.926;2022-08-18T16:21:02;7.05;;;6.55;;
16813;SDS011;8524;57.650;11.926;2022-08-18T16:23:32;7.50;;;6.90;;
16813;SDS011;8524;57.650;11.926;2022-08-18T16:26:00;7.10;;;6.60;;
16813;SDS011;8524;57.650;11.926;2022-08-18T16:28:27;7.93;;;7.32;;
16813;SDS011;8524;57.650;11.926;2022-08-18T16:30:55;7.97;;;7.45;;
16813;SDS011;8524;57.650;11.926;2022-08-18T16:33:23;7.60;;;7.05;;
16813;SDS011;8524;57.650;11.926;2022-08-18T16:35:51;7.05;;;6.55;;
16813;SDS011;8524;57.650;11.926;2022-08-18T16:38:18;6.63;;;6.13;;
16813;SDS011;8524;57.650;11.926;2022-08-18T16:40:46;6.80;;;6.30;;
16813;SDS011;8524;57.650;11.926;2022-08-18T16:43:15;6.75;;;6.25;;
16813;SDS011;8524;57.650;11.926;2022-08-18T16:45:42;6.93;;;6.43;;
16813;SDS011;8524;57.650;11.926;2022-08-18T16:48:09;6.88;;;6.38;;
16813;SDS011;8524;57.650;11.926;2022-08-18T16:50:37;7.57;;;6.88;;
16813;SDS011;8524;57.650;11.926;2022-08-18T16:53:06;7.32;;;6.72;;
16813;SDS011;8524;57.650;11.926;2022-08-18T16:55:34;6.78;;;6.18;;
16813;SDS011;8524;57.650;11.926;2022-08-18T16:58:03;6.75;;;6.25;;
16813;SDS011;8524;57.650;11.926;2022-08-18T17:00:49;6.95;;;6.45;;
16813;SDS011;8524;57.650;11.926;2022-08-18T17:03:33;7.55;;;6.93;;
16813;SDS011;8524;57.650;11.926;2022-08-18T17:06:18;8.40;;;7.53;;
16813;SDS011;8524;57.650;11.926;2022-08-18T17:08:45;7.82;;;7.13;;
16813;SDS011;8524;57.650;11.926;2022-08-18T17:11:14;7.10;;;6.50;;
16813;SDS011;8524;57.650;11.926;2022-08-18T17:13:42;7.68;;;6.95;;
16813;SDS011;8524;57.650;11.926;2022-08-18T17:16:12;7.63;;;6.95;;
16813;SDS011;8524;57.650;11.926;2022-08-18T17:18:40;7.20;;;6.35;;
16813;SDS011;8524;57.650;11.926;2022-08-18T17:21:09;7.13;;;6.53;;
16813;SDS011;8524;57.650;11.926;2022-08-18T17:23:38;8.68;;;7.88;;
16813;SDS011;8524;57.650;11.926;2022-08-18T17:26:07;7.72;;;7.13;;
16813;SDS011;8524;57.650;11.926;2022-08-18T17:28:42;8.70;;;7.85;;
16813;SDS011;8524;57.650;11.926;2022-08-18T17:31:11;7.50;;;6.80;;
16813;SDS011;8524;57.650;11.926;2022-08-18T17:33:39;7.77;;;7.07;;
16813;SDS011;8524;57.650;11.926;2022-08-18T17:36:11;8.67;;;7.90;;
16813;SDS011;8524;57.650;11.926;2022-08-18T17:38:45;8.77;;;7.97;;
16813;SDS011;8524;57.650;11.926;2022-08-18T17:41:17;7.73;;;7.13;;
16813;SDS011;8524;57.650;11.926;2022-08-18T17:43:47;7.80;;;7.03;;
16813;SDS011;8524;57.650;11.926;2022-08-18T17:46:18;7.23;;;6.60;;
16813;SDS011;8524;57.650;11.926;2022-08-18T17:48:52;8.30;;;7.60;;
16813;SDS011;8524;57.650;11.926;2022-08-18T17:51:22;7.93;;;7.23;;
16813;SDS011;8524;57.650;11.926;2022-08-18T17:53:59;7.70;;;7.10;;
16813;SDS011;8524;57.650;11.926;2022-08-18T17:56:31;7.40;;;6.87;;
16813;SDS011;8524;57.650;11.926;2022-08-18T17:59:05;8.03;;;7.23;;
16813;SDS011;8524;57.650;11.926;2022-08-18T18:01:36;8.40;;;7.70;;
16813;SDS011;8524;57.650;11.926;2022-08-18T18:04:06;8.40;;;7.70;;
16813;SDS011;8524;57.650;11.926;2022-08-18T18:06:35;7.50;;;6.90;;
16813;SDS011;8524;57.650;11.926;2022-08-18T18:09:05;8.37;;;7.57;;
16813;SDS011;8524;57.650;11.926;2022-08-18T18:11:34;8.10;;;7.40;;
16813;SDS011;8524;57.650;11.926;2022-08-18T18:16:59;7.43;;;6.83;;
16813;SDS011;8524;57.650;11.926;2022-08-18T18:19:31;7.43;;;6.73;;
16813;SDS011;8524;57.650;11.926;2022-08-18T18:22:02;11.40;;;7.93;;
16813;SDS011;8524;57.650;11.926;2022-08-18T18:24:33;9.97;;;7.13;;
16813;SDS011;8524;57.650;11.926;2022-08-18T18:27:04;9.77;;;7.30;;
16813;SDS011;8524;57.650;11.926;2022-08-18T18:29:54;10.83;;;7.80;;
16813;SDS011;8524;57.650;11.926;2022-08-18T18:32:25;9.07;;;8.10;;
16813;SDS011;8524;57.650;11.926;2022-08-18T18:35:01;10.37;;;7.57;;
16813;SDS011;8524;57.650;11.926;2022-08-18T18:37:38;8.97;;;7.07;;
16813;SDS011;8524;57.650;11.926;2022-08-18T18:40:16;8.27;;;6.63;;
16813;SDS011;8524;57.650;11.926;2022-08-18T18:42:47;7.57;;;6.70;;
16813;SDS011;8524;57.650;11.926;2022-08-18T18:45:18;9.63;;;6.40;;
16813;SDS011;8524;57.650;11.926;2022-08-18T18:47:51;8.13;;;6.53;;
16813;SDS011;8524;57.650;11.926;2022-08-18T18:50:28;8.67;;;6.40;;
16813;SDS011;8524;57.650;11.926;2022-08-18T18:53:09;7.10;;;6.40;;
16813;SDS011;8524;57.650;11.926;2022-08-18T18:55:45;8.23;;;6.90;;
16813;SDS011;8524;57.650;11.926;2022-08-18T18:58:22;8.07;;;6.40;;
16813;SDS011;8524;57.650;11.926;2022-08-18T19:00:58;8.23;;;6.37;;
16813;SDS011;8524;57.650;11.926;2022-08-18T19:03:31;10.43;;;6.60;;
16813;SDS011;8524;57.650;11.926;2022-08-18T19:06:07;9.83;;;6.87;;
16813;SDS011;8524;57.650;11.926;2022-08-18T19:08:47;7.90;;;5.67;;
16813;SDS011;8524;57.650;11.926;2022-08-18T19:11:22;6.07;;;5.47;;
16813;SDS011;8524;57.650;11.926;2022-08-18T19:13:58;6.47;;;5.80;;
16813;SDS011;8524;57.650;11.926;2022-08-18T19:16:29;6.23;;;5.63;;
16813;SDS011;8524;57.650;11.926;2022-08-18T19:19:02;9.50;;;6.70;;
16813;SDS011;8524;57.650;11.926;2022-08-18T19:21:34;9.57;;;6.80;;
16813;SDS011;8524;57.650;11.926;2022-08-18T19:24:07;9.10;;;6.57;;
16813;SDS011;8524;57.650;11.926;2022-08-18T19:26:39;6.67;;;5.87;;
16813;SDS011;8524;57.650;11.926;2022-08-18T19:29:10;6.03;;;5.43;;
16813;SDS011;8524;57.650;11.926;2022-08-18T19:31:43;10.93;;;7.57;;
16813;SDS011;8524;57.650;11.926;2022-08-18T19:34:15;8.03;;;6.87;;
16813;SDS011;8524;57.650;11.926;2022-08-18T19:36:46;8.50;;;6.07;;
16813;SDS011;8524;57.650;11.926;2022-08-18T19:39:20;6.70;;;6.10;;
16813;SDS011;8524;57.650;11.926;2022-08-18T19:41:54;7.00;;;6.30;;
16813;SDS011;8524;57.650;11.926;2022-08-18T19:44:26;6.83;;;6.23;;
16813;SDS011;8524;57.650;11.926;2022-08-18T19:47:02;7.43;;;6.30;;
16813;SDS011;8524;57.650;11.926;2022-08-18T19:49:37;6.50;;;5.90;;
16813;SDS011;8524;57.650;11.926;2022-08-18T19:52:14;8.17;;;6.63;;
16813;SDS011;8524;57.650;11.926;2022-08-18T19:55:08;7.57;;;6.20;;
16813;SDS011;8524;57.650;11.926;2022-08-18T19:57:46;8.77;;;7.10;;
16813;SDS011;8524;57.650;11.926;2022-08-18T20:00:29;10.00;;;7.97;;
16813;SDS011;8524;57.650;11.926;2022-08-18T20:03:10;8.10;;;7.10;;
16813;SDS011;8524;57.650;11.926;2022-08-18T20:06:10;8.67;;;6.70;;
16813;SDS011;8524;57.650;11.926;2022-08-18T20:12:06;10.40;;;7.43;;
16813;SDS011;8524;57.650;11.926;2022-08-18T20:14:40;10.57;;;7.23;;
16813;SDS011;8524;57.650;11.926;2022-08-18T20:17:12;11.87;;;7.60;;
16813;SDS011;8524;57.650;11.926;2022-08-18T20:19:46;9.47;;;7.50;;
16813;SDS011;8524;57.650;11.926;2022-08-18T20:22:31;8.17;;;6.97;;
16813;SDS011;8524;57.650;11.926;2022-08-18T20:25:01;7.53;;;6.37;;
16813;SDS011;8524;57.650;11.926;2022-08-18T20:27:35;8.43;;;6.50;;
16813;SDS011;8524;57.650;11.926;2022-08-18T20:33:05;7.10;;;6.13;;
16813;SDS011;8524;57.650;11.926;2022-08-18T20:35:57;7.80;;;6.97;;
16813;SDS011;8524;57.650;11.926;2022-08-18T20:38:32;8.10;;;6.63;;
16813;SDS011;8524;57.650;11.926;2022-08-18T20:44:00;8.60;;;7.70;;
16813;SDS011;8524;57.650;11.926;2022-08-18T20:46:40;11.23;;;8.60;;
16813;SDS011;8524;57.650;11.926;2022-08-18T20:49:16;8.43;;;7.17;;
16813;SDS011;8524;57.650;11.926;2022-08-18T20:52:00;8.13;;;7.10;;
16813;SDS011;8524;57.650;11.926;2022-08-18T20:54:35;11.33;;;8.33;;
16813;SDS011;8524;57.650;11.926;2022-08-18T20:57:09;11.20;;;8.50;;
16813;SDS011;8524;57.650;11.926;2022-08-18T20:59:39;8.13;;;6.90;;
16813;SDS011;8524;57.650;11.926;2022-08-18T21:02:23;9.97;;;8.03;;
16813;SDS011;8524;57.650;11.926;2022-08-18T21:04:52;8.30;;;6.97;;
16813;SDS011;8524;57.650;11.926;2022-08-18T21:07:23;7.60;;;6.80;;
16813;SDS011;8524;57.650;11.926;2022-08-18T21:09:54;10.00;;;7.50;;
16813;SDS011;8524;57.650;11.926;2022-08-18T21:12:26;10.27;;;7.60;;
16813;SDS011;8524;57.650;11.926;2022-08-18T21:14:55;13.37;;;8.70;;
16813;SDS011;8524;57.650;11.926;2022-08-18T21:17:25;12.20;;;8.30;;
16813;SDS011;8524;57.650;11.926;2022-08-18T21:19:58;11.37;;;8.93;;
16813;SDS011;8524;57.650;11.926;2022-08-18T21:22:27;8.37;;;7.40;;
16813;SDS011;8524;57.650;11.926;2022-08-18T21:24:57;9.47;;;7.60;;
16813;SDS011;8524;57.650;11.926;2022-08-18T21:27:26;8.30;;;6.83;;
16813;SDS011;8524;57.650;11.926;2022-08-18T21:29:56;7.90;;;6.67;;
16813;SDS011;8524;57.650;11.926;2022-08-18T21:32:27;6.63;;;5.90;;
16813;SDS011;8524;57.650;11.926;2022-08-18T21:34:56;6.40;;;5.53;;
16813;SDS011;8524;57.650;11.926;2022-08-18T21:37:26;9.80;;;6.37;;
16813;SDS011;8524;57.650;11.926;2022-08-18T21:39:59;9.93;;;7.53;;
16813;SDS011;8524;57.650;11.926;2022-08-18T21:42:37;7.70;;;6.60;;
16813;SDS011;8524;57.650;11.926;2022-08-18T21:45:12;8.50;;;6.50;;
16813;SDS011;8524;57.650;11.926;2022-08-18T21:47:45;8.10;;;6.53;;
16813;SDS011;8524;57.650;11.926;2022-08-18T21:50:15;9.73;;;7.47;;
16813;SDS011;8524;57.650;11.926;2022-08-18T21:52:48;8.87;;;7.23;;
16813;SDS011;8524;57.650;11.926;2022-08-18T21:55:20;10.73;;;7.70;;
16813;SDS011;8524;57.650;11.926;2022-08-18T21:57:59;8.63;;;7.50;;
16813;SDS011;8524;57.650;11.926;2022-08-18T22:00:30;9.60;;;7.77;;
16813;SDS011;8524;57.650;11.926;2022-08-18T22:03:09;7.60;;;6.80;;
16813;SDS011;8524;57.650;11.926;2022-08-18T22:05:41;9.57;;;8.23;;
16813;SDS011;8524;57.650;11.926;2022-08-18T22:08:14;9.03;;;8.00;;
16813;SDS011;8524;57.650;11.926;2022-08-18T22:10:49;10.50;;;7.77;;
16813;SDS011;8524;57.650;11.926;2022-08-18T22:14:08;11.53;;;7.20;;
16813;SDS011;8524;57.650;11.926;2022-08-18T22:16:39;9.63;;;7.27;;
16813;SDS011;8524;57.650;11.926;2022-08-18T22:19:10;10.23;;;7.53;;
16813;SDS011;8524;57.650;11.926;2022-08-18T22:21:59;9.87;;;7.13;;
16813;SDS011;8524;57.650;11.926;2022-08-18T22:24:51;9.00;;;7.00;;
16813;SDS011;8524;57.650;11.926;2022-08-18T22:27:20;11.10;;;7.63;;
16813;SDS011;8524;57.650;11.926;2022-08-18T22:29:50;9.37;;;7.80;;
16813;SDS011;8524;57.650;11.926;2022-08-18T22:32:20;9.77;;;7.67;;
16813;SDS011;8524;57.650;11.926;2022-08-18T22:34:47;10.50;;;7.33;;
16813;SDS011;8524;57.650;11.926;2022-08-18T22:37:15;7.30;;;6.30;;
16813;SDS011;8524;57.650;11.926;2022-08-18T22:39:45;7.10;;;6.40;;
16813;SDS011;8524;57.650;11.926;2022-08-18T22:42:15;8.77;;;6.90;;
16813;SDS011;8524;57.650;11.926;2022-08-18T22:44:46;10.23;;;7.10;;
16813;SDS011;8524;57.650;11.926;2022-08-18T22:47:13;8.43;;;6.50;;
16813;SDS011;8524;57.650;11.926;2022-08-18T22:49:40;7.63;;;6.57;;
16813;SDS011;8524;57.650;11.926;2022-08-18T22:52:10;10.30;;;8.07;;
16813;SDS011;8524;57.650;11.926;2022-08-18T22:54:41;8.73;;;7.40;;
16813;SDS011;8524;57.650;11.926;2022-08-18T22:57:07;7.50;;;6.70;;
16813;SDS011;8524;57.650;11.926;2022-08-18T22:59:34;7.77;;;6.10;;